createdAt,value
2023-03-29T00:02:30.857Z,2.92
2023-03-29T00:06:43.443Z,2.94
2023-03-29T00:11:06.085Z,3.18
2023-03-29T00:15:19.104Z,3.45
2023-03-29T00:19:36.344Z,3.51
2023-03-29T00:23:48.878Z,3.37
2023-03-29T00:28:01.994Z,3.63
2023-03-29T00:32:14.998Z,3.42
2023-03-29T00:36:28.632Z,3.50
2023-03-29T00:40:47.791Z,3.68
2023-03-29T00:45:06.783Z,3.67
2023-03-29T00:49:19.281Z,3.68
2023-03-29T00:53:40.805Z,3.78
2023-03-29T00:57:56.570Z,3.70
2023-03-29T01:02:10.237Z,3.69
2023-03-29T01:06:25.884Z,3.58
2023-03-29T01:10:38.220Z,3.71
2023-03-29T01:15:07.893Z,3.62
2023-03-29T01:19:25.910Z,3.78
2023-03-29T01:24:12.377Z,3.76
2023-03-29T01:29:06.390Z,3.76
2023-03-29T01:33:29.033Z,3.76
2023-03-29T01:37:51.629Z,3.81
2023-03-29T01:42:15.494Z,3.78
2023-03-29T01:46:46.811Z,3.61
2023-03-29T01:51:07.995Z,3.90
2023-03-29T01:55:26.202Z,3.89
2023-03-29T01:59:43.602Z,3.82
2023-03-29T02:04:03.863Z,3.67
2023-03-29T02:08:18.532Z,3.78
2023-03-29T02:12:31.881Z,3.76
2023-03-29T02:16:46.920Z,3.75
2023-03-29T02:21:00.145Z,3.64
2023-03-29T02:25:13.732Z,3.52
2023-03-29T02:29:27.068Z,3.51
2023-03-29T02:33:44.310Z,3.48
2023-03-29T02:37:58.168Z,3.52
2023-03-29T02:42:21.161Z,3.49
2023-03-29T02:46:44.659Z,3.54
2023-03-29T02:51:02.577Z,3.54
2023-03-29T02:55:19.664Z,3.59
2023-03-29T02:59:32.139Z,3.47
2023-03-29T03:03:45.943Z,3.52
2023-03-29T03:07:59.208Z,3.48
2023-03-29T03:12:11.701Z,3.49
2023-03-29T03:16:24.701Z,3.53
2023-03-29T03:20:37.262Z,3.53
2023-03-29T03:24:50.090Z,3.47
2023-03-29T03:29:03.124Z,3.46
2023-03-29T03:33:15.600Z,3.38
2023-03-29T03:37:29.393Z,3.47
2023-03-29T03:41:41.837Z,3.28
2023-03-29T03:45:54.599Z,3.24
2023-03-29T03:50:09.862Z,3.21
2023-03-29T03:54:22.286Z,3.19
2023-03-29T03:58:35.295Z,2.99
2023-03-29T04:02:49.054Z,2.75
2023-03-29T04:07:04.355Z,2.60
2023-03-29T04:11:16.831Z,2.78
2023-03-29T04:15:30.450Z,2.56
2023-03-29T04:19:42.958Z,2.60
2023-03-29T04:23:55.462Z,2.75
2023-03-29T04:28:08.607Z,2.79
2023-03-29T04:32:21.157Z,2.77
2023-03-29T04:36:40.232Z,2.95
2023-03-29T04:40:52.700Z,2.83
2023-03-29T04:45:08.132Z,3.01
2023-03-29T04:49:20.686Z,3.13
2023-03-29T04:53:33.343Z,3.19
2023-03-29T04:57:45.806Z,3.11
2023-03-29T05:02:08.409Z,3.39
2023-03-29T05:06:20.988Z,3.43
2023-03-29T05:10:33.460Z,3.27
2023-03-29T05:14:45.918Z,3.46
2023-03-29T05:18:59.599Z,3.60
2023-03-29T05:23:13.321Z,3.64
2023-03-29T05:27:26.273Z,3.69
2023-03-29T05:31:39.036Z,3.79
2023-03-29T05:36:01.259Z,3.82
2023-03-29T05:40:14.224Z,3.81
2023-03-29T05:44:26.729Z,3.99
2023-03-29T05:48:39.544Z,4.06
2023-03-29T05:53:02.049Z,4.32
2023-03-29T05:57:14.485Z,4.49
2023-03-29T06:01:27.015Z,4.79
2023-03-29T06:05:40.270Z,4.92
2023-03-29T06:09:52.740Z,5.15
2023-03-29T06:14:05.495Z,5.40
2023-03-29T06:18:28.474Z,5.88
2023-03-29T06:22:42.665Z,6.28
2023-03-29T06:26:55.136Z,6.59
2023-03-29T06:31:07.848Z,6.85
2023-03-29T06:35:20.460Z,6.98
2023-03-29T06:39:33.797Z,7.08
2023-03-29T06:43:46.280Z,7.24
2023-03-29T06:47:58.970Z,7.41
2023-03-29T06:52:11.869Z,7.66
2023-03-29T06:56:24.627Z,7.92
2023-03-29T07:00:39.797Z,8.35
2023-03-29T07:04:52.578Z,8.60
2023-03-29T07:09:07.410Z,8.68
2023-03-29T07:13:21.126Z,8.53
2023-03-29T07:17:33.602Z,8.71
2023-03-29T07:21:46.063Z,8.75
2023-03-29T07:25:58.530Z,8.96
2023-03-29T07:30:17.653Z,9.24
2023-03-29T07:34:30.820Z,9.31
2023-03-29T07:38:43.847Z,9.38
2023-03-29T07:42:57.879Z,9.42
2023-03-29T07:47:10.349Z,9.54
2023-03-29T07:51:23.393Z,9.84
2023-03-29T07:55:36.176Z,9.87
2023-03-29T07:59:48.707Z,10.20
2023-03-29T08:04:01.338Z,10.11
2023-03-29T08:08:14.968Z,9.99
2023-03-29T08:12:27.448Z,9.52
2023-03-29T08:16:40.067Z,9.74
2023-03-29T08:20:53.422Z,9.90
2023-03-29T08:25:07.775Z,10.16
2023-03-29T08:29:32.109Z,10.23
2023-03-29T08:33:45.214Z,10.15
2023-03-29T08:37:57.713Z,10.31
2023-03-29T08:42:26.360Z,10.34
2023-03-29T08:47:09.090Z,10.36
2023-03-29T08:51:43.706Z,10.65
2023-03-29T08:55:59.840Z,10.73
2023-03-29T09:00:29.275Z,10.87
2023-03-29T09:04:43.285Z,11.06
2023-03-29T09:09:14.974Z,11.22
2023-03-29T09:14:04.144Z,11.59
2023-03-29T09:18:16.722Z,11.46
2023-03-29T09:22:47.416Z,11.35
2023-03-29T09:27:34.178Z,11.08
2023-03-29T09:31:47.025Z,11.67
2023-03-29T09:36:03.172Z,11.57
2023-03-29T09:40:21.108Z,11.81
2023-03-29T09:44:46.482Z,12.34
2023-03-29T09:48:59.431Z,12.19
2023-03-29T09:53:19.388Z,12.39
2023-03-29T09:57:36.597Z,12.38
2023-03-29T10:01:49.154Z,12.04
2023-03-29T10:06:06.042Z,11.75
2023-03-29T10:10:28.474Z,12.56
2023-03-29T10:14:47.802Z,12.64
2023-03-29T10:19:35.919Z,13.19
2023-03-29T10:23:50.674Z,12.89
2023-03-29T10:28:18.382Z,13.28
2023-03-29T10:32:37.599Z,13.45
2023-03-29T10:37:00.072Z,13.19
2023-03-29T10:41:23.978Z,13.38
2023-03-29T10:45:38.523Z,12.74
2023-03-29T10:50:02.269Z,13.01
2023-03-29T10:54:18.102Z,13.33
2023-03-29T10:59:09.488Z,13.62
2023-03-29T11:03:44.551Z,13.78
2023-03-29T11:08:06.048Z,14.45
2023-03-29T11:12:53.580Z,14.01
2023-03-29T11:17:23.804Z,13.81
2023-03-29T11:22:25.474Z,13.68
2023-03-29T11:27:15.600Z,13.45
2023-03-29T11:32:01.307Z,14.27
2023-03-29T11:36:54.592Z,14.39
2023-03-29T11:41:16.468Z,14.55
2023-03-29T11:45:53.658Z,14.34
2023-03-29T11:50:20.494Z,13.81
2023-03-29T11:54:46.278Z,13.45
2023-03-29T11:59:06.719Z,13.89
2023-03-29T12:03:53.365Z,14.08
2023-03-29T12:08:34.475Z,13.82
2023-03-29T12:12:56.648Z,13.64
2023-03-29T12:17:17.940Z,13.90
2023-03-29T12:21:31.872Z,14.18
2023-03-29T12:26:18.330Z,13.91
2023-03-29T12:31:20.973Z,15.74
2023-03-29T12:36:50.995Z,15.96
2023-03-29T12:41:20.583Z,16.57
2023-03-29T12:45:44.229Z,15.19
2023-03-29T12:49:59.429Z,14.83
2023-03-29T12:54:24.049Z,14.01
2023-03-29T12:58:56.039Z,14.04
2023-03-29T13:03:29.982Z,14.32
2023-03-29T13:07:48.296Z,14.24
2023-03-29T13:12:12.052Z,14.68
2023-03-29T13:16:38.129Z,14.27
2023-03-29T13:21:07.171Z,14.51
2023-03-29T13:26:12.314Z,15.21
2023-03-29T13:30:46.527Z,16.14
2023-03-29T13:35:16.477Z,16.22
2023-03-29T13:39:32.726Z,16.23
2023-03-29T13:43:45.420Z,16.26
2023-03-29T13:48:42.231Z,15.96
2023-03-29T13:53:50.914Z,16.78
2023-03-29T13:58:29.994Z,16.36
2023-03-29T14:02:49.443Z,17.10
2023-03-29T14:07:03.186Z,16.51
2023-03-29T14:11:29.904Z,17.56
2023-03-29T14:15:53.464Z,16.88
2023-03-29T14:20:16.889Z,16.11
2023-03-29T14:24:38.982Z,15.74
2023-03-29T14:28:57.452Z,15.73
2023-03-29T14:33:15.006Z,15.74
2023-03-29T14:37:31.101Z,15.53
2023-03-29T14:41:57.758Z,15.12
2023-03-29T14:46:14.537Z,15.18
2023-03-29T14:50:37.266Z,14.89
2023-03-29T14:54:57.291Z,14.82
2023-03-29T14:59:43.454Z,14.57
2023-03-29T15:04:12.664Z,14.35
2023-03-29T15:08:38.523Z,14.30
2023-03-29T15:13:04.510Z,14.15
2023-03-29T15:17:51.240Z,14.10
2023-03-29T15:22:11.816Z,14.21
2023-03-29T15:26:36.939Z,13.96
2023-03-29T15:31:00.776Z,13.88
2023-03-29T15:35:25.680Z,13.83
2023-03-29T15:39:44.732Z,13.49
2023-03-29T15:43:57.211Z,13.06
2023-03-29T15:48:24.203Z,12.93
2023-03-29T15:52:37.231Z,12.76
2023-03-29T15:56:55.995Z,12.64
2023-03-29T16:01:37.413Z,12.61
2023-03-29T16:05:50.111Z,12.48
2023-03-29T16:10:02.771Z,12.75
2023-03-29T16:14:26.136Z,12.59
2023-03-29T16:18:39.497Z,12.47
2023-03-29T16:22:52.618Z,12.48
2023-03-29T16:27:05.404Z,12.53
2023-03-29T16:31:17.961Z,12.51
2023-03-29T16:35:33.660Z,12.45
2023-03-29T16:39:47.163Z,12.44
2023-03-29T16:44:00.914Z,12.48
2023-03-29T16:48:19.335Z,12.29
2023-03-29T16:52:32.291Z,12.33
2023-03-29T16:56:45.057Z,12.28
2023-03-29T17:00:58.488Z,12.11
2023-03-29T17:05:13.268Z,12.10
2023-03-29T17:09:28.367Z,11.93
2023-03-29T17:13:42.148Z,11.80
2023-03-29T17:17:54.648Z,11.80
2023-03-29T17:22:07.295Z,11.77
2023-03-29T17:26:19.718Z,11.67
2023-03-29T17:30:34.731Z,11.67
2023-03-29T17:34:48.700Z,11.56
2023-03-29T17:39:03.107Z,11.58
2023-03-29T17:43:15.626Z,11.52
2023-03-29T17:47:28.266Z,11.53
2023-03-29T17:51:41.134Z,11.43
2023-03-29T17:55:53.698Z,11.40
2023-03-29T18:00:13.660Z,11.62
2023-03-29T18:04:26.279Z,11.46
2023-03-29T18:08:39.555Z,11.37
2023-03-29T18:12:59.174Z,11.27
2023-03-29T18:17:11.899Z,11.21
2023-03-29T18:21:26.783Z,11.24
2023-03-29T18:25:39.610Z,11.00
2023-03-29T18:29:52.186Z,11.09
2023-03-29T18:34:04.846Z,11.06
2023-03-29T18:38:19.585Z,10.96
2023-03-29T18:42:32.121Z,10.99
2023-03-29T18:46:44.787Z,10.69
2023-03-29T18:50:58.699Z,10.67
2023-03-29T18:55:11.387Z,10.55
2023-03-29T18:59:23.910Z,10.72
2023-03-29T19:03:37.025Z,10.53
2023-03-29T19:07:49.633Z,10.32
2023-03-29T19:12:03.150Z,10.24
2023-03-29T19:16:15.605Z,10.10
2023-03-29T19:20:28.229Z,10.16
2023-03-29T19:24:40.748Z,9.92
2023-03-29T19:28:53.169Z,9.88
2023-03-29T19:33:05.750Z,9.94
2023-03-29T19:37:18.525Z,9.94
2023-03-29T19:41:31.189Z,9.90
2023-03-29T19:45:48.780Z,9.97
2023-03-29T19:50:02.531Z,9.89
2023-03-29T19:54:15.266Z,9.83
2023-03-29T19:58:27.759Z,9.82
2023-03-29T20:02:40.729Z,9.79
2023-03-29T20:06:53.156Z,9.85
2023-03-29T20:11:10.854Z,9.87
2023-03-29T20:15:27.163Z,9.86
2023-03-29T20:19:44.915Z,9.93
2023-03-29T20:23:58.134Z,9.81
2023-03-29T20:28:13.596Z,9.92
2023-03-29T20:32:26.145Z,9.95
2023-03-29T20:36:39.540Z,10.03
2023-03-29T20:40:52.082Z,10.12
2023-03-29T20:45:06.705Z,10.27
2023-03-29T20:49:19.133Z,10.36
2023-03-29T20:53:43.601Z,10.12
2023-03-29T20:57:59.074Z,10.13
2023-03-29T21:02:17.354Z,9.85
2023-03-29T21:06:30.984Z,9.82
2023-03-29T21:10:43.548Z,9.56
2023-03-29T21:14:56.117Z,9.38
2023-03-29T21:19:10.463Z,9.46
2023-03-29T21:23:22.941Z,9.49
2023-03-29T21:27:35.629Z,9.62
2023-03-29T21:31:48.622Z,9.53
2023-03-29T21:36:01.849Z,9.46
2023-03-29T21:40:14.768Z,9.50
2023-03-29T21:44:27.412Z,9.63
2023-03-29T21:48:39.948Z,9.58
2023-03-29T21:52:52.453Z,9.69
2023-03-29T21:57:05.107Z,9.56
2023-03-29T22:01:17.751Z,9.50
2023-03-29T22:05:30.484Z,9.32
2023-03-29T22:09:44.310Z,9.31
2023-03-29T22:13:57.046Z,9.82
2023-03-29T22:18:10.858Z,9.99
2023-03-29T22:22:23.647Z,10.02
2023-03-29T22:26:36.341Z,10.14
2023-03-29T22:30:48.791Z,10.13
2023-03-29T22:35:01.433Z,9.94
2023-03-29T22:39:14.308Z,10.12
2023-03-29T22:43:26.792Z,10.19
2023-03-29T22:47:39.805Z,10.35
2023-03-29T22:51:52.570Z,10.42
2023-03-29T22:56:05.705Z,10.33
2023-03-29T23:00:18.903Z,10.27
2023-03-29T23:04:42.940Z,10.16
2023-03-29T23:08:55.791Z,10.05
2023-03-29T23:13:11.633Z,9.98
2023-03-29T23:17:24.859Z,10.03
2023-03-29T23:21:37.890Z,9.97
2023-03-29T23:25:53.113Z,9.90
2023-03-29T23:30:08.302Z,9.97
2023-03-29T23:34:21.090Z,9.97
2023-03-29T23:38:36.565Z,10.03
2023-03-29T23:42:49.986Z,10.13
2023-03-29T23:47:02.556Z,10.07
2023-03-29T23:51:16.108Z,9.96
2023-03-29T23:55:28.722Z,9.93
2023-03-29T23:59:46.939Z,10.04
